Sonic Adventure (DX): Overall Rankings

Records: Times | Rings | Scores | Races | Bosses | Freestyle
Leaders: Times | Rings | Scores | Races | Bosses | Freestyle | Overall
Rank Player Percent Points Date
1 Sonicspeedruner 97.9% 369 02-24-21
2 Gamepro011 97.6% 423 02-24-21
3 DarkPolarNight 96.3% 667 02-24-21
4 Jawzun 92.7% 1314 02-24-21
5 Dashjump 91.2% 1596 02-24-21
6 Avento128bits 89.2% 1950 02-24-21
7 DarkspinesSonic 89.1% 1963 02-24-21
8 ike6252 88.9% 2000 02-24-21
9 F-Man 87.1% 2337 02-24-21
10 Coolfansonic 86.9% 2365 02-24-21
11 TheRealShadnic 84.6% 2783 02-24-21
12 HyperSonic7701 83.9% 2909 02-24-21
13 yoshifan 82.1% 3249 02-24-21
14 Nim 81.9% 3287 02-24-21
15 frankoredstrato 81.6% 3332 02-24-21
16 francisco 80.7% 3502 02-24-21
17 Marth 80.3% 3563 02-24-21
18 InferSaime 79.2% 3775 02-24-21
19 PfoSonic 78.7% 3869 02-24-21
20 Paragod 78.3% 3937 02-24-21
21 THC98 77.4% 4095 02-24-21
22 Stefan 75.0% 4539 02-24-21
23 Dekuboy 73.8% 4743 02-24-21
24 RPGnutter 72.9% 4908 02-24-21
25 bertin 72.7% 4944 02-24-21
26 sonicam 70.7% 5310 02-24-21
27 drminus 69.2% 5586 02-24-21
28 chaos shadow 68.7% 5680 02-24-21
29 chainchump 65.4% 6286 02-24-21
30 Combo 64.7% 6397 02-24-21
31 SkyLights 63.5% 6616 02-24-21
32 xXMegaManXx 62.0% 6894 02-24-21
33 Diamond 61.7% 6958 02-24-21
34 Auriman1 59.5% 7350 02-24-21
34 GerbilSoft 59.5% 7350 02-24-21
36 OmegaDJ 59.4% 7372 02-24-21
37 magnum12 58.6% 7506 02-24-21
38 Thorn 56.4% 7911 02-24-21
39 P1 Pause 56.1% 7962 02-24-21
40 mike89 55.0% 8165 02-24-21
41 Dave Cramer 53.2% 8490 02-24-21
42 Groudon199 53.0% 8528 02-24-21
43 Parax 52.6% 8604 02-24-21
44 SPVLABS 52.0% 8707 02-24-21
45 Shadow Jacky 52.0% 8711 02-24-21
46 CoEmpathy 49.2% 9225 02-24-21
47 Zurggriff 48.5% 9342 02-24-21
48 Niczur 47.1% 9610 02-24-21
49 Psymar 47.0% 9628 02-24-21
50 Arch 46.1% 9776 02-24-21
51 Chao_Fan 45.3% 9927 02-24-21
52 mauserman 44.7% 10036 02-24-21
53 Quartz 44.1% 10151 02-24-21
54 teamblackarms 43.5% 10262 02-24-21
55 Psyknux 42.8% 10386 02-24-21
56 James_Bertolli 42.3% 10483 02-24-21
57 Cyan Ryan 42.2% 10489 02-24-21
58 NintenDan 41.9% 10549 02-24-21
59 Turbos 41.3% 10663 02-24-21
60 Webber3000 41.2% 10670 02-24-21
61 Ring Rush 41.1% 10699 02-24-21
62 Fr3nZy 41.0% 10718 02-24-21
63 Cream147 40.9% 10722 02-24-21
64 Siavash Tazari 40.7% 10766 02-24-21
65 videogamemaster777 40.7% 10769 02-24-21
66 buddychaos0415 40.1% 10875 02-24-21
67 SadisticMystic 39.6% 10973 02-24-21
68 ethmar 39.1% 11047 02-24-21
69 eggFL 38.6% 11138 02-24-21
70 Calfd 38.0% 11264 02-24-21
71 SB737 37.1% 11426 02-24-21
72 supersonic465 36.7% 11497 02-24-21
73 supersonicfan 36.0% 11613 02-24-21
74 FuzZerd 34.8% 11834 02-24-21
75 Aitamen 34.4% 11904 02-24-21
76 BigAL49 34.0% 11979 02-24-21
77 elecmouse101 34.0% 11989 02-24-21
78 danieldude 33.9% 11997 02-24-21
79 Austinf 33.3% 12111 02-24-21
80 metanightmare22 32.8% 12199 02-24-21
81 dabestgamer 32.5% 12262 02-24-21
82 MiStEr_ShAoLiN 32.2% 12311 02-24-21
83 Andrea Ritsu 31.4% 12447 02-24-21
84 itsPersonnal 31.2% 12496 02-24-21
85 Cybrax 30.4% 12644 02-24-21
86 JamminX42 30.3% 12646 02-24-21
87 SilvertheAlmighty 30.3% 12658 02-24-21
88 WeegeeZV 30.2% 12675 02-24-21
89 Mastakirby 29.9% 12731 02-24-21
90 VMU Player Banned 28.3% 13010 02-24-21
91 Staf 27.9% 13089 02-24-21
92 Omega Rafael Santos 27.8% 13104 02-24-21
93 The T 27.5% 13170 02-24-21
94 EngiNerd 27.3% 13204 02-24-21
95 lordmetalsonic 26.8% 13282 02-24-21
96 Hipertails12 26.5% 13346 02-24-21
97 welldooder64 26.2% 13399 02-24-21
98 GreatStar 26.0% 13435 02-24-21
99 The Great Lord Mick 25.9% 13461 02-24-21
100 Sondow 25.7% 13488 02-24-21
101 LinksDarkArrows 25.6% 13509 02-24-21
102 Skylace 24.6% 13691 02-24-21
103 a_moustache 23.7% 13847 02-24-21
104 Rolken 23.2% 13948 02-24-21
105 Spinballwizard 21.5% 14259 02-24-21
106 Xia 21.5% 14260 02-24-21
107 Kogen Player Banned 21.5% 14261 02-24-21
108 f0rever_zer0 21.1% 14330 02-24-21
109 Twilisailor 21.0% 14340 02-24-21
110 Don 20.9% 14355 02-24-21
111 Cutiefox 20.8% 14376 02-24-21
112 Miles9999 20.8% 14377 02-24-21
113 Game_Complete 20.8% 14388 02-24-21
114 iden1 20.7% 14407 02-24-21
115 andres430 20.2% 14487 02-24-21
116 Cruizer 19.9% 14536 02-24-21
117 iSonicKid2K 19.8% 14554 02-24-21
118 Pokemonmaster888 19.8% 14562 02-24-21
119 SADXTryHard 19.6% 14604 02-24-21
120 GarnetPrincess 19.1% 14681 02-24-21
121 N 18.9% 14718 02-24-21
122 AxlThunder 18.7% 14765 02-24-21
123 knuckles_sonic8 18.3% 14827 02-24-21
124 Team_Yoshi 17.9% 14916 02-24-21
125 KinkyCadence 17.8% 14928 02-24-21
126 The Knuckles Chao 17.7% 14941 02-24-21
127 Termon 17.5% 14985 02-24-21
128 LittleBigness 17.3% 15012 02-24-21
129 FoxBoy 17.3% 15018 02-24-21
130 SonicWinDX 17.2% 15027 02-24-21
131 Drakodan 16.5% 15167 02-24-21
132 Sonic Singularity 15.5% 15348 02-24-21
133 paulie9990 14.7% 15483 02-24-21
134 SilverSonic 14.2% 15586 02-24-21
135 MPit08 14.1% 15597 02-24-21
136 sonicd5 14.0% 15612 02-24-21
137 Mo Player Banned 13.8% 15655 02-24-21
138 koinu93 13.6% 15688 02-24-21
139 Cod4Scopes 13.2% 15755 02-24-21
140 HyperSonic64 13.1% 15771 02-24-21
141 Jerzia 13.1% 15782 02-24-21
142 booo95 13.0% 15790 02-24-21
142 Modest 13.0% 15790 02-24-21
144 Hunters13 13.0% 15798 02-24-21
145 Chawkk 12.8% 15827 02-24-21
146 SuperSonic101 12.7% 15857 02-24-21
147 Maxinfamily 12.6% 15874 02-24-21
148 R3FR4G 12.5% 15885 02-24-21
149 PsyBorg 12.3% 15917 02-24-21
150 LilZero 12.2% 15936 02-24-21
151 Kanimayo_Jp 12.2% 15940 02-24-21
152 Flying Fox 12.2% 15944 02-24-21
153 BrokenArthritis 12.0% 15972 02-24-21
154 Therio 11.7% 16040 02-24-21
155 sonicspeed 11.5% 16063 02-24-21
156 douglas 11.4% 16095 02-24-21
156 SonicAD 11.4% 16095 02-24-21
158 Matt_TY 11.1% 16143 02-24-21
159 thewaytodawnnn 11.1% 16148 02-24-21
160 ModifiedMonkee 11.0% 16167 02-24-21
161 Cooljay 10.5% 16249 02-24-21
162 SuperBlitzCraig 10.4% 16270 02-24-21
163 joecoolgames 10.4% 16277 02-24-21
164 SeaWolf 10.3% 16281 02-24-21
165 videogamer1014 10.1% 16324 02-24-21
166 AC-Tygo 9.9% 16361 02-24-21
167 welshmoose05 9.8% 16378 02-24-21
168 OddCook 9.6% 16409 02-24-21
169 crazy1993 9.5% 16429 02-24-21
170 TFEC Headshot 9.5% 16435 02-24-21
171 Mcshuggets 9.3% 16463 02-24-21
172 Mariobutch 9.3% 16464 02-24-21
173 niscool 9.1% 16513 02-24-21
174 Irregular Zero 9.0% 16523 02-24-21
175 nuckrieg 8.9% 16539 02-24-21
176 Shadowthegreat 8.7% 16574 02-24-21
177 superjupi 8.7% 16576 02-24-21
178 SirTobbii 8.6% 16590 02-24-21
179 sonamyfan666 8.4% 16630 02-24-21
180 Powerjohn25 8.4% 16632 02-24-21
181 iarebored 8.4% 16640 02-24-21
182 SaviourDC 8.3% 16656 02-24-21
182 SonicKnuckles 8.3% 16656 02-24-21
184 Badlex727 8.2% 16667 02-24-21
185 Werey 8.1% 16691 02-24-21
186 adf 8.0% 16715 02-24-21
187 Megaman EXE565 7.7% 16767 02-24-21
188 ArcticDragon 7.5% 16793 02-24-21
189 Platformer 7.3% 16836 02-24-21
190 timpkmn89 7.2% 16847 02-24-21
191 Zethor 7.2% 16850 02-24-21
192 Swift Hobo 7.1% 16863 02-24-21
193 FocusSight64 7.1% 16866 02-24-21
194 Vicklaw 7.0% 16881 02-24-21
195 wheatrich 7.0% 16884 02-24-21
196 Rickyman48 6.9% 16915 02-24-21
197 KitsuneYamaro 6.8% 16932 02-24-21
198 Sm4sh 6.7% 16944 02-24-21
199 Triseena 6.5% 16974 02-24-21
200 Destroyer121121 6.3% 17013 02-24-21
201 CyberShadow 6.3% 17015 02-24-21
202 Starlight Sable 6.3% 17018 02-24-21
203 slade23 6.3% 17021 02-24-21
204 dShadow 6.2% 17035 02-24-21
205 IsisDazs 6.1% 17050 02-24-21
206 BlankTH 5.9% 17089 02-24-21
207 Monkeh 5.8% 17113 02-24-21
208 SonicU260 5.6% 17144 02-24-21
209 Richied 5.5% 17160 02-24-21
210 DaDude 5.5% 17165 02-24-21
211 Swinkly 5.5% 17166 02-24-21
212 Crispian 5.4% 17170 02-24-21
213 Zip 5.3% 17190 02-24-21
214 VeritasDL 5.1% 17228 02-24-21
215 tal39h 5.0% 17250 02-24-21
216 ALundstrom10 4.9% 17262 02-24-21
217 Kirbymon30 4.9% 17266 02-24-21
218 soniccoloursunleashed 4.7% 17298 02-24-21
219 Drflash55 4.7% 17311 02-24-21
220 Bass 4.6% 17322 02-24-21
221 Yish 4.5% 17337 02-24-21
222 zapp 4.5% 17342 02-24-21
223 neaolas 4.5% 17343 02-24-21
224 UninspiredUsername 4.4% 17354 02-24-21
225 Sonicsuperstar1 4.4% 17357 02-24-21
226 superiorsonic 4.4% 17360 02-24-21
227 gamefreak1292 4.3% 17372 02-24-21
228 Sora_yx 4.2% 17399 02-24-21
229 Chaos_Overlord 4.0% 17439 02-24-21
230 TakaRikka 3.9% 17452 02-24-21
231 Valfore 3.8% 17461 02-24-21
232 Dage4Aquatic 3.8% 17474 02-24-21
233 ShinigamiMachine 3.7% 17485 02-24-21
234 ArthurVGCP 3.6% 17498 02-24-21
235 Regano1000 3.6% 17507 02-24-21
236 MK 3.5% 17521 02-24-21
237 Ace747 3.5% 17533 02-24-21
238 Jua Rever 3.3% 17564 02-24-21
239 Illidan 3.1% 17604 02-24-21
240 Venick409 3.1% 17605 02-24-21
241 HHNNBBHHN 3.0% 17606 02-24-21
242 Brian_pso 3.0% 17611 02-24-21
243 nman36 3.0% 17615 02-24-21
244 Sithwarrior26 3.0% 17616 02-24-21
245 Egor305 2.9% 17642 02-24-21
246 TheChaosEmeraIds 2.8% 17645 02-24-21
247 ingx24 2.8% 17646 02-24-21
248 SkyBon 2.8% 17655 02-24-21
249 Nickson98 2.8% 17657 02-24-21
250 dekki1234 2.7% 17661 02-24-21
251 FSSRandomvids 2.7% 17662 02-24-21
252 Fozer 2.6% 17679 02-24-21
253 sonic29887 2.6% 17683 02-24-21
254 Colomb_30 2.6% 17691 02-24-21
254 TheUltraBlur 2.6% 17691 02-24-21
256 Aiko 2.6% 17693 02-24-21
257 1stKirbyever 2.5% 17701 02-24-21
258 TimTH 2.4% 17718 02-24-21
259 Th4tN1nj4Turtl3 2.3% 17746 02-24-21
260 Cort_pso 2.2% 17753 02-24-21
261 Doom-9 2.2% 17759 02-24-21
262 ieatatsonic 2.2% 17761 02-24-21
263 Mariosonic15 2.1% 17772 02-24-21
264 MStitomix 2.1% 17784 02-24-21
265 HermitHelmet 2.0% 17789 02-24-21
266 arcfx1985 2.0% 17791 02-24-21
267 SuperSonic71087 2.0% 17802 02-24-21
268 Artie 1.9% 17808 02-24-21
268 Got4n 1.9% 17808 02-24-21
270 Questionguy555 1.9% 17815 02-24-21
271 Jose_15 1.9% 17817 02-24-21
272 djmat 1.8% 17832 02-24-21
273 SuperSonicfan9595 1.8% 17836 02-24-21
274 sonicandamy 1.7% 17855 02-24-21
275 LancexExWx 1.7% 17860 02-24-21
276 Paixii 1.6% 17863 02-24-21
277 son1cgu1tar 1.6% 17867 02-24-21
278 Heroes_Hater 1.6% 17877 02-24-21
279 BallzeH 1.5% 17884 02-24-21
280 Jamixesa 1.5% 17887 02-24-21
281 Mankster101 1.5% 17891 02-24-21
282 BecauseWarAnvil 1.5% 17896 02-24-21
283 Xandre69 1.4% 17898 02-24-21
284 Crydio 1.4% 17906 02-24-21
284 Shanekilz 1.4% 17906 02-24-21
286 SpiritDragon1995 1.4% 17909 02-24-21
287 MarewBFN 1.3% 17923 02-24-21
288 stanski 1.3% 17926 02-24-21
289 Sonique Hedgehog 1.3% 17929 02-24-21
290 Blue Infamy 1.2% 17943 02-24-21
291 p0ker 1.2% 17944 02-24-21
292 ErrortheCucco 1.1% 17954 02-24-21
293 Arthas 1.1% 17956 02-24-21
294 Rikum22 1.1% 17957 02-24-21
295 sonic1001 1.1% 17965 02-24-21
296 AJSIV 1.1% 17968 02-24-21
297 syco1098 1.0% 17971 02-24-21
298 IDGeek121 1.0% 17973 02-24-21
298 Sonic the Hedgehod16 1.0% 17973 02-24-21
300 WingedInsignia 1.0% 17974 02-24-21
301 ASINISTERTACO 1.0% 17981 02-24-21
302 sonicfan9 1.0% 17987 02-24-21
303 BlackArmsShadow 0.9% 17998 02-24-21
303 themachoman202 0.9% 17998 02-24-21
305 shadowblast63 Player Banned 0.8% 18006 02-24-21
306 Fivavoa 0.8% 18007 02-24-21
307 Ben1502 0.8% 18009 02-24-21
307 Greham Adelphis 0.8% 18009 02-24-21
307 Mr. Jones 0.8% 18009 02-24-21
310 MastaToken 0.8% 18010 02-24-21
310 TommyeAsY 0.8% 18010 02-24-21
312 darkstarblaze 0.8% 18011 02-24-21
313 ptorflaxendrosis 0.8% 18017 02-24-21
314 FlandreScarlet9999vr 0.8% 18018 02-24-21
315 Gvozdevik 0.8% 18019 02-24-21
316 Zeldocto 0.8% 18022 02-24-21
317 Knuckles 0.8% 18023 02-24-21
318 BeeAwwb 0.7% 18026 02-24-21
319 KaM Mark MaK 0.7% 18030 02-24-21
320 ShadouZaHejjihoggu 0.7% 18033 02-24-21
321 Sonic The Star 0.6% 18042 02-24-21
322 darkersupershadic 0.6% 18043 02-24-21
323 Sogeking 0.6% 18044 02-24-21
324 Sonic62 0.6% 18046 02-24-21
325 Sarger001 0.6% 18050 02-24-21
325 SonicK100 0.6% 18050 02-24-21
327 dragondragon18 0.6% 18051 02-24-21
327 Grady219 0.6% 18051 02-24-21
329 Shadygamerfreak 0.6% 18053 02-24-21
330 Jawaah 0.6% 18056 02-24-21
331 Antek 0.5% 18061 02-24-21
331 SpinDashMaster 0.5% 18061 02-24-21
333 Klaus 0.5% 18063 02-24-21
333 SilverK 0.5% 18063 02-24-21
335 BioShadow 0.5% 18069 02-24-21
336 Videogamer123 0.5% 18075 02-24-21
337 IcKY 0.5% 18078 02-24-21
338 oTaiIilLsS 0.4% 18085 02-24-21
339 isaihtb11 0.4% 18086 02-24-21
340 OhNoes! 0.4% 18090 02-24-21
341 Mad Andy 0.4% 18092 02-24-21
342 S-MS32X-S 0.4% 18093 02-24-21
342 zaktu40 0.4% 18093 02-24-21
344 gaara1234 0.4% 18096 02-24-21
345 gamed00d 0.3% 18101 02-24-21
346 Mister_Slick 0.3% 18106 02-24-21
347 Sonic06Fan 0.3% 18109 02-24-21
348 Rush Hero 0.3% 18112 02-24-21
349 ChaosNexuss 0.3% 18113 02-24-21
350 SonicMega167 0.2% 18118 02-24-21
351 Iwannabelink 0.2% 18121 02-24-21
351 sonknuck23 0.2% 18121 02-24-21
353 DanielTheFalcon 0.2% 18130 02-24-21
353 gamer1245 0.2% 18130 02-24-21
355 Burningskull123 0.1% 18137 02-24-21
356 Sonicontherun 0.1% 18148 02-24-21
357 Lil_Dude 0.1% 18150 02-24-21
358 antiwwe 0.0% 18154 02-24-21
359 Cbwade15 0.0% 18158 02-24-21
359 Genuine Hedgehog 0.0% 18158 02-24-21
361 Tyrouble 0.0% 18162 02-24-21
362 MakoHNM 0.0% 18169 02-24-21
362 MegabombBlade 0.0% 18169 02-24-21
362 neji_hyuuga 0.0% 18169 02-24-21
362 Over 0.0% 18169 02-24-21
362 sdj6707 Player Banned 0.0% 18169 02-24-21
362 Tran Sonic Fan Player Banned 0.0% 18169 02-24-21

This page is using the New Data Table System. [FUTURE]

Game ID: 3 | Category ID: 10
Hits: 79,503 | Hits This Month: 1 | DB Calls: 21 | Mem Usage: 1.12 MB | Time: 0.04s | Printable

The Sonic Center v3.9
Copyright 2003-2011 by The Sonic Center Team.